Hill City Airport

About
Name: Hill City Airport
Identifier:  HLC/KHLC
Local Time:  23. Aug 05:03
Location
Flights per Day
0 flights
Punctuality
0% (0 flights per day delayed)
Delay Average: 157 minutes
Current Weather
 21 C (Humidity: 88%)
  6kt (11km/h / 6mph) from 160°
  16km (10 mi.)
 
 METAR KHLC 230453Z AUTO 16006KT 10SM CLR 21/19 A3000 RMK AO2 SLP140 T02110189

Current Flights

Departures
Number Departure To Airline
Arrivals
Number Arrival From Airline

Current Delays

Departures
N/A
Arrivals
N/A

Destinations

Top Destinations
Airport Flights
per week
Seats
per week
  Denver (APA) 2 - 0 0
  Green Bay (GRB) 0 - 0 0
  Kansas City (MKC) 0 - 0 0
  Alton (ALN) 0 - 0 0
  Las Vegas (HSH) 0 - 0 0
  Boulder (WBU) 0 - 0 0
  Toledo (TOL) 0 - 0 0
  Springfield (SPI) 0 - 0 0
  Colorado Springs (COS) 0 - 0 0

Airlines & Planes

Top Airlines
Airline Flights
per Day
Seats
per Day
  Novair 0 -
  National Airlines 0 -
  Nolinor Aviation 0 -
Jet Charter Inc ( Franklin Lakes Nj ) 0 -
Nordwind Airlines 0 -
Top Plane Types
Model Flights Seats
Piper PA-46-350P Malibu Mirage 0.3/day - 0
Cessna C82S 0.1/day - 0
Beech E55 Baron 0.1/day - 0